GRDN24 EGUB-EGLA

Flight info

Callsign GRDN24
Flight time N/A
Altitude 6000
Route BZN TR1 LND LFA2
Aircraft EC45/L-VGDW/C

Departure

Time N/A
Airport RAF Benson (EGUB)

Arrival

Time 2026-04-16 19:31
Airport Bodmin Airfield (EGLA)
Time Latitude Longitude Altitude Speed Heading
2026-04-16 18:37 50.25982 -5.26614 6071 ft 93 kts 234°
2026-04-16 18:37 50.25685 -5.27513 6069 ft 93 kts 234°
2026-04-16 18:37 50.25385 -5.28416 6074 ft 93 kts 234°
2026-04-16 18:37 50.25092 -5.29294 6004 ft 91 kts 232°
2026-04-16 18:38 50.24795 -5.30167 5797 ft 91 kts 232°
2026-04-16 18:38 50.24498 -5.31037 5592 ft 90 kts 232°
2026-04-16 18:38 50.24202 -5.31901 5388 ft 89 kts 231°
2026-04-16 18:38 50.23915 -5.32763 5182 ft 89 kts 232°
2026-04-16 18:39 50.23633 -5.33613 4989 ft 89 kts 232°
2026-04-16 18:39 50.23348 -5.34472 4776 ft 88 kts 232°
2026-04-16 18:39 50.23067 -5.35316 4571 ft 88 kts 232°
2026-04-16 18:39 50.22784 -5.36166 4362 ft 88 kts 232°
2026-04-16 18:40 50.22503 -5.37010 4150 ft 87 kts 232°
2026-04-16 18:40 50.22223 -5.37854 3942 ft 88 kts 232°
2026-04-16 18:40 50.21947 -5.38683 3737 ft 87 kts 232°
2026-04-16 18:40 50.21669 -5.39516 3541 ft 86 kts 232°
2026-04-16 18:41 50.21395 -5.40340 3337 ft 85 kts 232°
2026-04-16 18:41 50.21000 -5.40970 3130 ft 82 kts 201°
2026-04-16 18:41 50.20425 -5.40820 2924 ft 93 kts 156°
2026-04-16 18:41 50.20058 -5.39917 2721 ft 109 kts 117°
2026-04-16 18:42 50.19868 -5.38754 2510 ft 111 kts 113°
2026-04-16 18:42 50.19690 -5.37576 2304 ft 111 kts 112°
2026-04-16 18:42 50.19531 -5.36400 2099 ft 110 kts 110°
2026-04-16 18:42 50.19397 -5.35254 1910 ft 101 kts 107°
2026-04-16 18:43 50.19312 -5.34197 1697 ft 98 kts 105°
2026-04-16 18:43 50.19249 -5.33142 1484 ft 97 kts 103°
2026-04-16 18:43 50.19208 -5.32095 1285 ft 97 kts 101°
2026-04-16 18:43 50.19196 -5.31320 1171 ft 96 kts 101°
2026-04-16 18:44 50.19187 -5.30283 1055 ft 99 kts 100°
2026-04-16 18:44 50.19158 -5.29190 1062 ft 101 kts 100°
2026-04-16 18:44 50.19121 -5.28098 1058 ft 100 kts 102°
2026-04-16 18:44 50.19053 -5.27007 1232 ft 104 kts 109°
2026-04-16 18:45 50.18942 -5.25933 1258 ft 95 kts 113°
2026-04-16 18:45 50.18618 -5.25106 1264 ft 86 kts 137°
2026-04-16 18:45 50.18240 -5.24379 1258 ft 87 kts 139°
2026-04-16 18:45 50.17854 -5.23633 1259 ft 89 kts 139°
2026-04-16 18:46 50.17461 -5.22877 1259 ft 87 kts 138°
2026-04-16 18:46 50.17085 -5.22160 1260 ft 86 kts 139°
2026-04-16 18:46 50.16702 -5.21424 1260 ft 86 kts 139°
2026-04-16 18:46 50.16329 -5.20709 1261 ft 86 kts 139°
2026-04-16 18:47 50.15951 -5.19982 1260 ft 86 kts 139°
2026-04-16 18:47 50.15569 -5.19250 1261 ft 87 kts 139°
2026-04-16 18:47 50.15190 -5.18523 1259 ft 86 kts 139°
2026-04-16 18:47 50.14812 -5.17796 1261 ft 86 kts 139°
2026-04-16 18:48 50.14434 -5.17070 1260 ft 86 kts 139°
2026-04-16 18:48 50.14037 -5.16391 1252 ft 84 kts 152°
2026-04-16 18:48 50.13512 -5.16166 1266 ft 71 kts 176°
2026-04-16 18:48 50.13036 -5.16053 1259 ft 68 kts 176°
2026-04-16 18:49 50.12576 -5.15937 1259 ft 65 kts 178°
2026-04-16 18:49 50.12177 -5.16228 1262 ft 67 kts 219°
2026-04-16 18:49 50.11917 -5.16802 1262 ft 66 kts 226°
2026-04-16 18:49 50.11670 -5.17408 1261 ft 67 kts 226°
2026-04-16 18:50 50.11421 -5.18022 1257 ft 67 kts 226°
2026-04-16 18:50 50.11174 -5.18641 1260 ft 67 kts 227°
2026-04-16 18:50 50.10928 -5.19269 1256 ft 69 kts 230°
2026-04-16 18:50 50.10680 -5.19925 1263 ft 71 kts 229°
2026-04-16 18:51 50.10443 -5.20575 1259 ft 69 kts 229°
2026-04-16 18:51 50.10221 -5.21231 1256 ft 68 kts 229°
2026-04-16 18:51 50.10006 -5.21890 1259 ft 67 kts 230°
2026-04-16 18:51 50.09793 -5.22524 1247 ft 69 kts 229°
2026-04-16 18:52 50.09545 -5.23174 892 ft 65 kts 229°
2026-04-16 18:52 50.09367 -5.23720 740 ft 50 kts 228°
2026-04-16 18:52 50.09242 -5.24152 622 ft 40 kts 224°
2026-04-16 18:52 50.09115 -5.24537 510 ft 37 kts 218°
2026-04-16 18:53 50.09007 -5.24871 392 ft 28 kts 209°
2026-04-16 18:53 50.08950 -5.25052 314 ft 10 kts 210°
2026-04-16 18:53 50.08931 -5.25107 276 ft 1 kts 207°
2026-04-16 18:53 50.08929 -5.25108 263 ft 0 kts 203°
2026-04-16 18:55 50.08924 -5.25124 275 ft 5 kts 210°
2026-04-16 18:55 50.08895 -5.25219 323 ft 20 kts 221°
2026-04-16 18:55 50.08759 -5.25600 574 ft 58 kts 228°
2026-04-16 18:56 50.08525 -5.26312 716 ft 88 kts 234°
2026-04-16 18:56 50.08448 -5.27360 758 ft 114 kts 272°
2026-04-16 18:56 50.09036 -5.28298 770 ft 136 kts 316°
2026-04-16 18:56 50.09907 -5.28950 794 ft 138 kts 324°
2026-04-16 18:57 50.10806 -5.29581 694 ft 144 kts 325°
2026-04-16 18:57 50.11692 -5.30254 746 ft 140 kts 325°
2026-04-16 18:57 50.12568 -5.30899 805 ft 139 kts 328°
2026-04-16 18:58 50.14545 -5.31170 669 ft 153 kts
2026-04-16 18:58 50.15550 -5.31042 802 ft 141 kts
2026-04-16 18:58 50.16526 -5.30706 784 ft 145 kts 28°
2026-04-16 18:58 50.17028 -5.29521 1010 ft 125 kts 82°
2026-04-16 18:59 50.16984 -5.28220 1075 ft 117 kts 106°
2026-04-16 18:59 50.16969 -5.26941 1091 ft 124 kts 85°
2026-04-16 18:59 50.17030 -5.25605 961 ft 127 kts 105°
2026-04-16 18:59 50.17090 -5.24254 1014 ft 124 kts 101°
2026-04-16 19:00 50.16956 -5.23358 951 ft 127 kts 110°
2026-04-16 19:00 50.16794 -5.21581 975 ft 129 kts 94°
2026-04-16 19:00 50.17202 -5.20262 822 ft 134 kts 27°
2026-04-16 19:00 50.18041 -5.20170 873 ft 122 kts 323°
2026-04-16 19:01 50.18302 -5.21215 892 ft 99 kts 242°
2026-04-16 19:01 50.17798 -5.21688 845 ft 94 kts 179°
2026-04-16 19:01 50.17191 -5.21347 933 ft 95 kts 158°
2026-04-16 19:01 50.16580 -5.20905 953 ft 101 kts 156°
2026-04-16 19:02 50.15937 -5.20354 933 ft 108 kts 150°
2026-04-16 19:02 50.15573 -5.19265 877 ft 123 kts 108°
2026-04-16 19:02 50.15417 -5.17956 852 ft 122 kts 104°
2026-04-16 19:02 50.15275 -5.16671 856 ft 120 kts 105°
2026-04-16 19:03 50.15119 -5.15372 724 ft 126 kts 106°
2026-04-16 19:03 50.14843 -5.14146 488 ft 125 kts 132°
2026-04-16 19:03 50.15226 -5.13168 354 ft 127 kts 30°
2026-04-16 19:03 50.15628 -5.13159 386 ft 49 kts 148°
2026-04-16 19:04 50.15896 -5.12508 403 ft 95 kts 64°
2026-04-16 19:04 50.16239 -5.11546 485 ft 107 kts 63°
2026-04-16 19:04 50.16643 -5.10492 471 ft 117 kts 63°
2026-04-16 19:04 50.16876 -5.09208 345 ft 129 kts 86°
2026-04-16 19:05 50.16670 -5.07865 227 ft 126 kts 103°
2026-04-16 19:05 50.16178 -5.06900 255 ft 113 kts 111°
2026-04-16 19:05 50.16114 -5.05609 175 ft 125 kts 97°
2026-04-16 19:05 50.16085 -5.04236 40 ft 131 kts 95°
2026-04-16 19:06 50.16095 -5.03469 252 ft 31 kts 224°
2026-04-16 19:06 50.16503 -5.04009 79 ft 109 kts 343°
2026-04-16 19:06 50.17172 -5.03819 143 ft 90 kts 105°
2026-04-16 19:06 50.16840 -5.03844 92 ft 79 kts 220°
2026-04-16 19:07 50.16496 -5.04274 166 ft 45 kts 98°
2026-04-16 19:07 50.16830 -5.03628 60 ft 88 kts 56°
2026-04-16 19:07 50.16906 -5.03247 52 ft 42 kts 291°
2026-04-16 19:07 50.17277 -5.03063 219 ft 87 kts 32°
2026-04-16 19:08 50.17983 -5.02307 132 ft 143 kts 33°
2026-04-16 19:08 50.18780 -5.01464 286 ft 144 kts 15°
2026-04-16 19:08 50.19318 -5.00510 410 ft 135 kts 94°
2026-04-16 19:08 50.19966 -4.99612 435 ft 151 kts
2026-04-16 19:09 50.21016 -4.99256 493 ft 153 kts 12°
2026-04-16 19:09 50.22058 -4.98847 397 ft 155 kts
2026-04-16 19:09 50.22855 -4.98148 305 ft 129 kts 61°
2026-04-16 19:09 50.23441 -4.97002 326 ft 142 kts 49°
2026-04-16 19:10 50.24351 -4.96255 180 ft 150 kts 39°
2026-04-16 19:10 50.25272 -4.95636 205 ft 150 kts
2026-04-16 19:10 50.26257 -4.95272 323 ft 143 kts 13°
2026-04-16 19:10 50.27037 -4.94408 571 ft 127 kts 42°
2026-04-16 19:11 50.27259 -4.93170 532 ft 124 kts 114°
2026-04-16 19:11 50.27046 -4.91855 479 ft 140 kts 86°
2026-04-16 19:11 50.27529 -4.90483 500 ft 144 kts 44°
2026-04-16 19:11 50.28180 -4.89783 498 ft 76 kts 261°
2026-04-16 19:12 50.28146 -4.89741 393 ft 73 kts 61°
2026-04-16 19:12 50.28679 -4.89059 350 ft 104 kts 31°
2026-04-16 19:12 50.29613 -4.88591 462 ft 109 kts 27°
2026-04-16 19:12 50.30029 -4.88161 529 ft 108 kts 37°
2026-04-16 19:13 50.30652 -4.87431 510 ft 115 kts 49°
2026-04-16 19:13 50.31084 -4.86464 612 ft 108 kts 58°
2026-04-16 19:13 50.31536 -4.85497 665 ft 114 kts 53°
2026-04-16 19:13 50.32024 -4.84475 628 ft 120 kts 53°
2026-04-16 19:14 50.32375 -4.83314 639 ft 118 kts 66°
2026-04-16 19:14 50.32963 -4.82430 636 ft 121 kts 18°
2026-04-16 19:14 50.33781 -4.82545 574 ft 117 kts 320°
2026-04-16 19:14 50.34335 -4.83348 732 ft 100 kts 296°
2026-04-16 19:15 50.34772 -4.84152 949 ft 94 kts 305°
2026-04-16 19:15 50.35085 -4.83875 679 ft 66 kts 143°
2026-04-16 19:15 50.34974 -4.83903 667 ft 51 kts 313°
2026-04-16 19:15 50.35178 -4.83803 665 ft 29 kts 196°
2026-04-16 19:16 50.35210 -4.83864 627 ft 35 kts 111°
2026-04-16 19:16 50.35264 -4.83984 654 ft 64 kts
2026-04-16 19:16 50.35524 -4.83348 631 ft 82 kts 105°
2026-04-16 19:16 50.35383 -4.82649 740 ft 90 kts 133°
2026-04-16 19:17 50.35151 -4.81535 785 ft 115 kts 101°
2026-04-16 19:17 50.35439 -4.80269 783 ft 135 kts 53°
2026-04-16 19:17 50.36202 -4.79391 809 ft 135 kts 46°
2026-04-16 19:17 50.36390 -4.78105 917 ft 126 kts 97°
2026-04-16 19:18 50.35950 -4.77285 875 ft 100 kts 120°
2026-04-16 19:18 50.36363 -4.76254 738 ft 124 kts 60°
2026-04-16 19:18 50.36457 -4.74952 685 ft 121 kts 89°
2026-04-16 19:18 50.36144 -4.73900 663 ft 97 kts 171°
2026-04-16 19:19 50.35718 -4.74348 726 ft 92 kts 271°
2026-04-16 19:19 50.36190 -4.74997 828 ft 104 kts 11°
2026-04-16 19:19 50.36804 -4.74327 756 ft 124 kts 50°
2026-04-16 19:19 50.37322 -4.73176 626 ft 130 kts 58°
2026-04-16 19:20 50.37471 -4.71867 455 ft 123 kts 104°
2026-04-16 19:20 50.37277 -4.70595 439 ft 119 kts 104°
2026-04-16 19:20 50.37614 -4.69432 461 ft 125 kts 40°
2026-04-16 19:20 50.38412 -4.69164 503 ft 124 kts
2026-04-16 19:21 50.39277 -4.69056 576 ft 114 kts 329°
2026-04-16 19:21 50.39225 -4.69128 718 ft 74 kts 84°
2026-04-16 19:21 50.39692 -4.68336 575 ft 115 kts 39°
2026-04-16 19:21 50.40326 -4.67516 516 ft 119 kts 56°
2026-04-16 19:22 50.40670 -4.66467 657 ft 102 kts 30°
2026-04-16 19:22 50.41366 -4.66141 690 ft 115 kts
2026-04-16 19:22 50.42219 -4.65940 595 ft 127 kts 16°
2026-04-16 19:22 50.43036 -4.65266 680 ft 134 kts 39°
2026-04-16 19:23 50.43674 -4.64394 1157 ft 98 kts 43°
2026-04-16 19:23 50.44081 -4.63768 1859 ft 75 kts 50°
2026-04-16 19:23 50.44461 -4.63133 2474 ft 87 kts 46°
2026-04-16 19:23 50.44867 -4.62359 2948 ft 96 kts 50°
2026-04-16 19:24 50.45159 -4.61399 3153 ft 105 kts 95°
2026-04-16 19:24 50.44811 -4.60545 3151 ft 94 kts 162°
2026-04-16 19:24 50.44254 -4.60759 3244 ft 88 kts 217°
2026-04-16 19:24 50.43931 -4.61578 3291 ft 80 kts 206°
2026-04-16 19:25 50.43392 -4.61499 3289 ft 93 kts 147°
2026-04-16 19:25 50.43118 -4.60458 3293 ft 125 kts 96°
2026-04-16 19:25 50.43413 -4.59048 3172 ft 146 kts 62°
2026-04-16 19:25 50.44037 -4.57770 3194 ft 154 kts 52°
2026-04-16 19:26 50.44432 -4.57095 3944 ft 10 kts 108°
2026-04-16 19:26 50.44502 -4.57822 2118 ft 116 kts 293°
2026-04-16 19:26 50.45236 -4.58302 1581 ft 119 kts 312°
2026-04-16 19:26 50.45844 -4.59284 1222 ft 127 kts 302°
2026-04-16 19:27 50.46416 -4.60252 1307 ft 119 kts 303°
2026-04-16 19:27 50.46966 -4.61188 1316 ft 114 kts 302°
2026-04-16 19:27 50.47535 -4.62061 1292 ft 119 kts 316°
2026-04-16 19:27 50.48160 -4.62884 1258 ft 117 kts 295°
2026-04-16 19:28 50.48659 -4.63890 1277 ft 115 kts 298°
2026-04-16 19:28 50.49144 -4.64828 1366 ft 110 kts 294°
2026-04-16 19:28 50.49589 -4.65824 1373 ft 111 kts 293°
2026-04-16 19:28 50.50044 -4.66811 1378 ft 111 kts 297°
2026-04-16 19:29 50.50506 -4.67812 1337 ft 116 kts 289°
2026-04-16 19:29 50.51109 -4.68564 1392 ft 114 kts 358°
2026-04-16 19:29 50.51793 -4.67982 1420 ft 115 kts 33°
2026-04-16 19:29 50.52317 -4.67100 1470 ft 108 kts 88°
2026-04-16 19:30 50.52161 -4.66079 1436 ft 88 kts 125°
2026-04-16 19:30 50.51752 -4.65587 1424 ft 74 kts 174°
2026-04-16 19:30 50.51222 -4.65776 1188 ft 85 kts 200°
2026-04-16 19:30 50.50717 -4.66136 945 ft 69 kts 198°
2026-04-16 19:31 50.50364 -4.66383 788 ft 43 kts 195°
2026-04-16 19:31 50.50185 -4.66502 706 ft 16 kts 195°
2026-04-16 19:31 50.50110 -4.66550 673 ft 10 kts 190°
2026-04-16 19:31 50.50063 -4.66501 666 ft 5 kts 135°
2026-04-16 19:32 50.50041 -4.66471 663 ft 5 kts 153°
2026-04-16 19:32 50.50020 -4.66468 663 ft 3 kts 214°
2026-04-16 19:32 50.49990 -4.66517 668 ft 3 kts 27°
2026-04-16 19:32 50.49991 -4.66512 657 ft 0 kts 18°